sensor_id;sensor_type;location;lat;lon;timestamp;temperature;humidity
10848;DHT22;5477;48.806;9.154;2023-07-13T00:02:24;20.70;99.90
10848;DHT22;5477;48.806;9.154;2023-07-13T00:04:53;20.60;99.90
10848;DHT22;5477;48.806;9.154;2023-07-13T00:07:21;20.60;99.90
10848;DHT22;5477;48.806;9.154;2023-07-13T00:09:52;20.50;99.90
10848;DHT22;5477;48.806;9.154;2023-07-13T00:12:26;20.50;99.90
10848;DHT22;5477;48.806;9.154;2023-07-13T00:14:56;20.40;99.90
10848;DHT22;5477;48.806;9.154;2023-07-13T00:17:25;20.40;99.90
10848;DHT22;5477;48.806;9.154;2023-07-13T00:19:54;20.30;99.90
10848;DHT22;5477;48.806;9.154;2023-07-13T00:22:23;20.20;99.90
10848;DHT22;5477;48.806;9.154;2023-07-13T00:24:54;20.20;99.90
10848;DHT22;5477;48.806;9.154;2023-07-13T00:27:23;20.20;99.90
10848;DHT22;5477;48.806;9.154;2023-07-13T00:29:53;20.10;99.90
10848;DHT22;5477;48.806;9.154;2023-07-13T00:32:22;20.10;99.90
10848;DHT22;5477;48.806;9.154;2023-07-13T00:34:52;20.00;99.90
10848;DHT22;5477;48.806;9.154;2023-07-13T00:37:20;20.00;99.90
10848;DHT22;5477;48.806;9.154;2023-07-13T00:39:48;19.90;99.90
10848;DHT22;5477;48.806;9.154;2023-07-13T00:42:17;19.90;99.90
10848;DHT22;5477;48.806;9.154;2023-07-13T00:45:01;19.90;99.90
10848;DHT22;5477;48.806;9.154;2023-07-13T00:47:29;19.80;99.90
10848;DHT22;5477;48.806;9.154;2023-07-13T00:49:57;19.80;99.90
10848;DHT22;5477;48.806;9.154;2023-07-13T00:52:26;19.80;99.90
10848;DHT22;5477;48.806;9.154;2023-07-13T00:54:55;19.80;99.90
10848;DHT22;5477;48.806;9.154;2023-07-13T00:57:25;19.80;99.90
10848;DHT22;5477;48.806;9.154;2023-07-13T00:59:57;19.70;99.90
10848;DHT22;5477;48.806;9.154;2023-07-13T01:02:26;19.80;99.90
10848;DHT22;5477;48.806;9.154;2023-07-13T01:04:56;19.70;99.90
10848;DHT22;5477;48.806;9.154;2023-07-13T01:07:25;19.70;99.90
10848;DHT22;5477;48.806;9.154;2023-07-13T01:09:56;19.70;99.90
10848;DHT22;5477;48.806;9.154;2023-07-13T01:12:26;19.70;99.90
10848;DHT22;5477;48.806;9.154;2023-07-13T01:14:57;19.70;99.90
10848;DHT22;5477;48.806;9.154;2023-07-13T01:17:27;19.70;99.90
10848;DHT22;5477;48.806;9.154;2023-07-13T01:19:56;19.70;99.90
10848;DHT22;5477;48.806;9.154;2023-07-13T01:22:25;19.70;99.90
10848;DHT22;5477;48.806;9.154;2023-07-13T01:24:54;19.70;99.90
10848;DHT22;5477;48.806;9.154;2023-07-13T01:27:26;19.70;99.90
10848;DHT22;5477;48.806;9.154;2023-07-13T01:29:54;19.60;99.90
10848;DHT22;5477;48.806;9.154;2023-07-13T01:32:29;19.60;99.90
10848;DHT22;5477;48.806;9.154;2023-07-13T01:34:58;19.60;99.90
10848;DHT22;5477;48.806;9.154;2023-07-13T01:37:27;19.60;99.90
10848;DHT22;5477;48.806;9.154;2023-07-13T01:40:00;19.50;99.90
10848;DHT22;5477;48.806;9.154;2023-07-13T01:42:30;19.50;99.90
10848;DHT22;5477;48.806;9.154;2023-07-13T01:44:58;19.30;99.90
10848;DHT22;5477;48.806;9.154;2023-07-13T01:47:26;19.30;99.90
10848;DHT22;5477;48.806;9.154;2023-07-13T01:49:55;19.30;99.90
10848;DHT22;5477;48.806;9.154;2023-07-13T01:52:24;19.30;99.90
10848;DHT22;5477;48.806;9.154;2023-07-13T01:54:53;19.30;99.90
10848;DHT22;5477;48.806;9.154;2023-07-13T01:57:21;19.30;99.90
10848;DHT22;5477;48.806;9.154;2023-07-13T01:59:49;19.20;99.90
10848;DHT22;5477;48.806;9.154;2023-07-13T02:02:17;19.20;99.90
10848;DHT22;5477;48.806;9.154;2023-07-13T02:04:45;19.20;99.90
10848;DHT22;5477;48.806;9.154;2023-07-13T02:07:13;19.20;99.90
10848;DHT22;5477;48.806;9.154;2023-07-13T02:09:43;19.10;99.90
10848;DHT22;5477;48.806;9.154;2023-07-13T02:12:13;19.10;99.90
10848;DHT22;5477;48.806;9.154;2023-07-13T02:14:40;19.10;99.90
10848;DHT22;5477;48.806;9.154;2023-07-13T02:17:09;19.10;99.90
10848;DHT22;5477;48.806;9.154;2023-07-13T02:19:37;19.10;99.90
10848;DHT22;5477;48.806;9.154;2023-07-13T02:22:05;19.00;99.90
10848;DHT22;5477;48.806;9.154;2023-07-13T02:24:34;19.00;99.90
10848;DHT22;5477;48.806;9.154;2023-07-13T02:27:02;19.00;99.90
10848;DHT22;5477;48.806;9.154;2023-07-13T02:29:31;18.90;99.90
10848;DHT22;5477;48.806;9.154;2023-07-13T02:31:59;18.80;99.90
10848;DHT22;5477;48.806;9.154;2023-07-13T02:34:27;18.80;99.90
10848;DHT22;5477;48.806;9.154;2023-07-13T02:36:59;18.80;99.90
10848;DHT22;5477;48.806;9.154;2023-07-13T02:39:27;18.70;99.90
10848;DHT22;5477;48.806;9.154;2023-07-13T02:41:54;18.70;99.90
10848;DHT22;5477;48.806;9.154;2023-07-13T02:44:22;18.60;99.90
10848;DHT22;5477;48.806;9.154;2023-07-13T02:46:52;18.50;99.90
10848;DHT22;5477;48.806;9.154;2023-07-13T02:49:20;18.30;99.90
10848;DHT22;5477;48.806;9.154;2023-07-13T02:51:48;18.10;99.90
10848;DHT22;5477;48.806;9.154;2023-07-13T02:54:16;18.00;99.90
10848;DHT22;5477;48.806;9.154;2023-07-13T02:56:44;17.90;99.90
10848;DHT22;5477;48.806;9.154;2023-07-13T02:59:12;17.90;99.90
10848;DHT22;5477;48.806;9.154;2023-07-13T03:01:41;17.80;99.90
10848;DHT22;5477;48.806;9.154;2023-07-13T03:04:10;17.70;99.90
10848;DHT22;5477;48.806;9.154;2023-07-13T03:06:39;17.70;99.90
10848;DHT22;5477;48.806;9.154;2023-07-13T03:09:08;17.50;99.90
10848;DHT22;5477;48.806;9.154;2023-07-13T03:11:40;17.50;99.90
10848;DHT22;5477;48.806;9.154;2023-07-13T03:14:18;17.40;99.90
10848;DHT22;5477;48.806;9.154;2023-07-13T03:16:46;17.20;99.90
10848;DHT22;5477;48.806;9.154;2023-07-13T03:19:16;17.20;99.90
10848;DHT22;5477;48.806;9.154;2023-07-13T03:21:48;17.10;99.90
10848;DHT22;5477;48.806;9.154;2023-07-13T03:24:16;17.10;99.90
10848;DHT22;5477;48.806;9.154;2023-07-13T03:26:44;17.10;99.90
10848;DHT22;5477;48.806;9.154;2023-07-13T03:29:12;17.10;99.90
10848;DHT22;5477;48.806;9.154;2023-07-13T03:31:41;17.20;99.90
10848;DHT22;5477;48.806;9.154;2023-07-13T03:34:09;17.30;99.90
10848;DHT22;5477;48.806;9.154;2023-07-13T03:36:39;17.30;99.90
10848;DHT22;5477;48.806;9.154;2023-07-13T03:39:10;17.30;99.90
10848;DHT22;5477;48.806;9.154;2023-07-13T03:41:51;17.30;99.90
10848;DHT22;5477;48.806;9.154;2023-07-13T03:44:19;17.20;99.90
10848;DHT22;5477;48.806;9.154;2023-07-13T03:46:55;17.20;99.90
10848;DHT22;5477;48.806;9.154;2023-07-13T03:49:23;17.20;99.90
10848;DHT22;5477;48.806;9.154;2023-07-13T03:51:54;17.20;99.90
10848;DHT22;5477;48.806;9.154;2023-07-13T03:54:22;17.20;99.90
10848;DHT22;5477;48.806;9.154;2023-07-13T03:56:50;17.10;99.90
10848;DHT22;5477;48.806;9.154;2023-07-13T03:59:20;17.20;99.90
10848;DHT22;5477;48.806;9.154;2023-07-13T04:01:48;17.20;99.90
10848;DHT22;5477;48.806;9.154;2023-07-13T04:04:16;17.30;99.90
10848;DHT22;5477;48.806;9.154;2023-07-13T04:06:44;17.30;99.90
10848;DHT22;5477;48.806;9.154;2023-07-13T04:09:14;17.30;99.90
10848;DHT22;5477;48.806;9.154;2023-07-13T04:11:42;17.20;99.90
10848;DHT22;5477;48.806;9.154;2023-07-13T04:14:10;17.20;99.90
10848;DHT22;5477;48.806;9.154;2023-07-13T04:16:38;17.20;99.90
10848;DHT22;5477;48.806;9.154;2023-07-13T04:19:06;17.10;99.90
10848;DHT22;5477;48.806;9.154;2023-07-13T04:21:46;17.20;99.90
10848;DHT22;5477;48.806;9.154;2023-07-13T04:24:16;17.20;99.90
10848;DHT22;5477;48.806;9.154;2023-07-13T04:26:44;17.20;99.90
10848;DHT22;5477;48.806;9.154;2023-07-13T04:29:12;17.20;99.90
10848;DHT22;5477;48.806;9.154;2023-07-13T04:31:40;17.20;99.90
10848;DHT22;5477;48.806;9.154;2023-07-13T04:34:08;17.10;99.90
10848;DHT22;5477;48.806;9.154;2023-07-13T04:36:36;17.10;99.90
10848;DHT22;5477;48.806;9.154;2023-07-13T04:39:04;17.00;99.90
10848;DHT22;5477;48.806;9.154;2023-07-13T04:41:34;17.00;99.90
10848;DHT22;5477;48.806;9.154;2023-07-13T04:44:02;16.90;99.90
10848;DHT22;5477;48.806;9.154;2023-07-13T04:46:30;16.90;99.90
10848;DHT22;5477;48.806;9.154;2023-07-13T04:48:58;16.90;99.90
10848;DHT22;5477;48.806;9.154;2023-07-13T04:51:27;16.90;99.90
10848;DHT22;5477;48.806;9.154;2023-07-13T04:53:55;16.90;99.90
10848;DHT22;5477;48.806;9.154;2023-07-13T04:56:27;16.80;99.90
10848;DHT22;5477;48.806;9.154;2023-07-13T04:58:56;16.90;99.90
10848;DHT22;5477;48.806;9.154;2023-07-13T05:01:25;16.90;99.90
10848;DHT22;5477;48.806;9.154;2023-07-13T05:03:53;16.90;99.90
10848;DHT22;5477;48.806;9.154;2023-07-13T05:06:23;16.90;99.90
10848;DHT22;5477;48.806;9.154;2023-07-13T05:08:51;16.90;99.90
10848;DHT22;5477;48.806;9.154;2023-07-13T05:11:19;16.90;99.90
10848;DHT22;5477;48.806;9.154;2023-07-13T05:13:47;16.90;99.90
10848;DHT22;5477;48.806;9.154;2023-07-13T05:16:16;17.00;99.90
10848;DHT22;5477;48.806;9.154;2023-07-13T05:18:44;17.00;99.90
10848;DHT22;5477;48.806;9.154;2023-07-13T05:21:12;17.00;99.90
10848;DHT22;5477;48.806;9.154;2023-07-13T05:23:41;17.00;99.90
10848;DHT22;5477;48.806;9.154;2023-07-13T05:26:09;17.10;99.90
10848;DHT22;5477;48.806;9.154;2023-07-13T05:28:37;17.10;99.90
10848;DHT22;5477;48.806;9.154;2023-07-13T05:31:07;17.20;99.90
10848;DHT22;5477;48.806;9.154;2023-07-13T05:33:37;17.20;99.90
10848;DHT22;5477;48.806;9.154;2023-07-13T05:36:06;17.40;99.90
10848;DHT22;5477;48.806;9.154;2023-07-13T05:38:34;17.50;99.90
10848;DHT22;5477;48.806;9.154;2023-07-13T05:41:02;17.60;99.90
10848;DHT22;5477;48.806;9.154;2023-07-13T05:43:32;17.70;99.90
10848;DHT22;5477;48.806;9.154;2023-07-13T05:46:00;17.90;99.90
10848;DHT22;5477;48.806;9.154;2023-07-13T05:48:28;18.00;99.90
10848;DHT22;5477;48.806;9.154;2023-07-13T05:50:57;18.10;99.90
10848;DHT22;5477;48.806;9.154;2023-07-13T05:53:25;18.00;99.90
10848;DHT22;5477;48.806;9.154;2023-07-13T05:55:54;18.00;99.90
10848;DHT22;5477;48.806;9.154;2023-07-13T05:58:23;18.00;99.90
10848;DHT22;5477;48.806;9.154;2023-07-13T06:00:59;18.00;99.90
10848;DHT22;5477;48.806;9.154;2023-07-13T06:03:28;18.00;99.90
10848;DHT22;5477;48.806;9.154;2023-07-13T06:05:57;18.10;99.90
10848;DHT22;5477;48.806;9.154;2023-07-13T06:08:27;18.20;99.90
10848;DHT22;5477;48.806;9.154;2023-07-13T06:11:02;18.40;99.90
10848;DHT22;5477;48.806;9.154;2023-07-13T06:13:30;18.60;99.90
10848;DHT22;5477;48.806;9.154;2023-07-13T06:15:58;18.80;99.90
10848;DHT22;5477;48.806;9.154;2023-07-13T06:18:26;18.90;99.90
10848;DHT22;5477;48.806;9.154;2023-07-13T06:20:54;19.20;99.90
10848;DHT22;5477;48.806;9.154;2023-07-13T06:23:24;19.30;99.90
10848;DHT22;5477;48.806;9.154;2023-07-13T06:25:52;19.50;99.90
10848;DHT22;5477;48.806;9.154;2023-07-13T06:28:20;19.50;99.90
10848;DHT22;5477;48.806;9.154;2023-07-13T06:30:48;19.70;99.90
10848;DHT22;5477;48.806;9.154;2023-07-13T06:33:16;19.60;99.90
10848;DHT22;5477;48.806;9.154;2023-07-13T06:35:44;19.60;99.90
10848;DHT22;5477;48.806;9.154;2023-07-13T06:38:12;19.60;99.90
10848;DHT22;5477;48.806;9.154;2023-07-13T06:40:42;19.70;99.90
10848;DHT22;5477;48.806;9.154;2023-07-13T06:43:10;20.00;99.90
10848;DHT22;5477;48.806;9.154;2023-07-13T06:45:42;20.20;99.90
10848;DHT22;5477;48.806;9.154;2023-07-13T06:48:10;20.30;99.90
10848;DHT22;5477;48.806;9.154;2023-07-13T06:50:38;20.40;99.90
10848;DHT22;5477;48.806;9.154;2023-07-13T06:53:06;20.40;99.90
10848;DHT22;5477;48.806;9.154;2023-07-13T06:55:34;20.60;99.90
10848;DHT22;5477;48.806;9.154;2023-07-13T06:58:03;20.80;99.90
10848;DHT22;5477;48.806;9.154;2023-07-13T07:00:31;20.90;99.90
10848;DHT22;5477;48.806;9.154;2023-07-13T07:03:00;21.00;99.90
10848;DHT22;5477;48.806;9.154;2023-07-13T07:05:28;21.10;99.90
10848;DHT22;5477;48.806;9.154;2023-07-13T07:07:56;21.20;99.90
10848;DHT22;5477;48.806;9.154;2023-07-13T07:10:24;21.30;99.90
10848;DHT22;5477;48.806;9.154;2023-07-13T07:12:52;21.40;99.90
10848;DHT22;5477;48.806;9.154;2023-07-13T07:15:22;21.40;99.90
10848;DHT22;5477;48.806;9.154;2023-07-13T07:17:50;21.50;99.70
10848;DHT22;5477;48.806;9.154;2023-07-13T07:20:18;21.70;99.20
10848;DHT22;5477;48.806;9.154;2023-07-13T07:22:47;21.80;98.90
10848;DHT22;5477;48.806;9.154;2023-07-13T07:25:15;21.80;98.00
10848;DHT22;5477;48.806;9.154;2023-07-13T07:27:44;21.80;97.90
10848;DHT22;5477;48.806;9.154;2023-07-13T07:30:15;21.90;97.10
10848;DHT22;5477;48.806;9.154;2023-07-13T07:32:47;21.90;96.50
10848;DHT22;5477;48.806;9.154;2023-07-13T07:35:18;21.90;95.30
10848;DHT22;5477;48.806;9.154;2023-07-13T07:37:46;22.00;94.80
10848;DHT22;5477;48.806;9.154;2023-07-13T07:40:17;22.10;95.00
10848;DHT22;5477;48.806;9.154;2023-07-13T07:42:48;22.20;95.40
10848;DHT22;5477;48.806;9.154;2023-07-13T07:45:16;22.20;94.90
10848;DHT22;5477;48.806;9.154;2023-07-13T07:47:44;22.20;94.10
10848;DHT22;5477;48.806;9.154;2023-07-13T07:50:14;22.20;93.90
10848;DHT22;5477;48.806;9.154;2023-07-13T07:52:42;22.00;93.20
10848;DHT22;5477;48.806;9.154;2023-07-13T07:55:11;22.10;93.50
10848;DHT22;5477;48.806;9.154;2023-07-13T07:57:42;22.20;93.20
10848;DHT22;5477;48.806;9.154;2023-07-13T08:00:14;22.30;92.50
10848;DHT22;5477;48.806;9.154;2023-07-13T08:02:46;22.30;92.30
10848;DHT22;5477;48.806;9.154;2023-07-13T08:05:19;22.40;92.00
10848;DHT22;5477;48.806;9.154;2023-07-13T08:08:06;22.40;91.00
10848;DHT22;5477;48.806;9.154;2023-07-13T08:10:35;22.30;91.80
10848;DHT22;5477;48.806;9.154;2023-07-13T08:13:04;22.50;92.00
10848;DHT22;5477;48.806;9.154;2023-07-13T08:15:34;22.70;91.10
10848;DHT22;5477;48.806;9.154;2023-07-13T08:18:04;22.80;91.50
10848;DHT22;5477;48.806;9.154;2023-07-13T08:20:36;22.90;92.00
10848;DHT22;5477;48.806;9.154;2023-07-13T08:23:04;23.10;90.60
10848;DHT22;5477;48.806;9.154;2023-07-13T08:25:32;23.20;90.20
10848;DHT22;5477;48.806;9.154;2023-07-13T08:28:00;23.20;90.20
10848;DHT22;5477;48.806;9.154;2023-07-13T08:30:28;23.20;90.20
10848;DHT22;5477;48.806;9.154;2023-07-13T08:32:56;23.20;91.00
10848;DHT22;5477;48.806;9.154;2023-07-13T08:35:24;23.20;91.50
10848;DHT22;5477;48.806;9.154;2023-07-13T08:37:53;23.00;91.10
10848;DHT22;5477;48.806;9.154;2023-07-13T08:40:25;23.00;91.60
10848;DHT22;5477;48.806;9.154;2023-07-13T08:42:55;23.10;91.20
10848;DHT22;5477;48.806;9.154;2023-07-13T08:45:28;23.20;90.90
10848;DHT22;5477;48.806;9.154;2023-07-13T08:48:03;23.30;90.50
10848;DHT22;5477;48.806;9.154;2023-07-13T08:50:35;23.40;90.30
10848;DHT22;5477;48.806;9.154;2023-07-13T08:53:30;23.40;90.00
10848;DHT22;5477;48.806;9.154;2023-07-13T08:56:00;23.40;90.30
10848;DHT22;5477;48.806;9.154;2023-07-13T08:58:29;23.60;89.00
10848;DHT22;5477;48.806;9.154;2023-07-13T09:01:02;23.70;88.00
10848;DHT22;5477;48.806;9.154;2023-07-13T09:03:39;24.00;86.60
10848;DHT22;5477;48.806;9.154;2023-07-13T09:06:10;24.00;87.00
10848;DHT22;5477;48.806;9.154;2023-07-13T09:08:52;24.10;85.10
10848;DHT22;5477;48.806;9.154;2023-07-13T09:11:40;24.20;84.70
10848;DHT22;5477;48.806;9.154;2023-07-13T09:14:37;24.50;83.60
10848;DHT22;5477;48.806;9.154;2023-07-13T09:17:13;24.60;82.00
10848;DHT22;5477;48.806;9.154;2023-07-13T09:19:42;24.60;82.90
10848;DHT22;5477;48.806;9.154;2023-07-13T09:22:20;24.60;82.50
10848;DHT22;5477;48.806;9.154;2023-07-13T09:25:02;24.80;81.30
10848;DHT22;5477;48.806;9.154;2023-07-13T09:27:36;24.80;80.70
10848;DHT22;5477;48.806;9.154;2023-07-13T09:30:21;24.60;81.10
10848;DHT22;5477;48.806;9.154;2023-07-13T09:32:52;24.70;80.60
10848;DHT22;5477;48.806;9.154;2023-07-13T09:35:23;24.70;79.50
10848;DHT22;5477;48.806;9.154;2023-07-13T09:37:58;24.70;79.50
10848;DHT22;5477;48.806;9.154;2023-07-13T09:40:38;24.90;78.30
10848;DHT22;5477;48.806;9.154;2023-07-13T09:43:10;25.20;78.50
10848;DHT22;5477;48.806;9.154;2023-07-13T09:45:40;25.40;77.50
10848;DHT22;5477;48.806;9.154;2023-07-13T09:48:13;25.40;76.90
10848;DHT22;5477;48.806;9.154;2023-07-13T09:50:42;25.30;78.20
10848;DHT22;5477;48.806;9.154;2023-07-13T09:53:12;25.40;77.60
10848;DHT22;5477;48.806;9.154;2023-07-13T09:55:43;25.20;77.40
10848;DHT22;5477;48.806;9.154;2023-07-13T09:58:14;25.30;77.70
10848;DHT22;5477;48.806;9.154;2023-07-13T10:00:53;25.70;74.80
10848;DHT22;5477;48.806;9.154;2023-07-13T10:03:25;25.80;73.50
10848;DHT22;5477;48.806;9.154;2023-07-13T10:05:53;25.80;74.10
10848;DHT22;5477;48.806;9.154;2023-07-13T10:08:26;26.20;73.30
10848;DHT22;5477;48.806;9.154;2023-07-13T10:11:01;26.30;71.30
10848;DHT22;5477;48.806;9.154;2023-07-13T10:13:33;26.50;71.10
10848;DHT22;5477;48.806;9.154;2023-07-13T10:16:04;26.70;70.50
10848;DHT22;5477;48.806;9.154;2023-07-13T10:18:41;26.80;69.40
10848;DHT22;5477;48.806;9.154;2023-07-13T10:21:14;26.70;67.80
10848;DHT22;5477;48.806;9.154;2023-07-13T10:23:48;26.40;67.30
10848;DHT22;5477;48.806;9.154;2023-07-13T10:26:23;26.10;69.50
10848;DHT22;5477;48.806;9.154;2023-07-13T10:28:55;26.30;68.90
10848;DHT22;5477;48.806;9.154;2023-07-13T10:31:24;26.50;67.50
10848;DHT22;5477;48.806;9.154;2023-07-13T10:33:52;26.90;67.00
10848;DHT22;5477;48.806;9.154;2023-07-13T10:36:28;26.60;66.80
10848;DHT22;5477;48.806;9.154;2023-07-13T10:38:59;26.30;68.10
10848;DHT22;5477;48.806;9.154;2023-07-13T10:41:35;26.40;68.40
10848;DHT22;5477;48.806;9.154;2023-07-13T10:44:09;26.70;67.60
10848;DHT22;5477;48.806;9.154;2023-07-13T10:46:41;26.80;66.10
10848;DHT22;5477;48.806;9.154;2023-07-13T10:49:12;26.70;65.10
10848;DHT22;5477;48.806;9.154;2023-07-13T10:51:40;26.80;65.60
10848;DHT22;5477;48.806;9.154;2023-07-13T10:54:19;27.00;65.50
10848;DHT22;5477;48.806;9.154;2023-07-13T10:57:13;27.20;64.20
10848;DHT22;5477;48.806;9.154;2023-07-13T10:59:46;27.00;65.10
10848;DHT22;5477;48.806;9.154;2023-07-13T11:02:23;27.00;65.00
10848;DHT22;5477;48.806;9.154;2023-07-13T11:04:54;27.10;65.70
10848;DHT22;5477;48.806;9.154;2023-07-13T11:07:26;27.10;66.00
10848;DHT22;5477;48.806;9.154;2023-07-13T11:09:55;27.00;65.70
10848;DHT22;5477;48.806;9.154;2023-07-13T11:12:52;26.90;65.40
10848;DHT22;5477;48.806;9.154;2023-07-13T11:15:30;27.00;65.20
10848;DHT22;5477;48.806;9.154;2023-07-13T11:18:02;27.10;63.70
10848;DHT22;5477;48.806;9.154;2023-07-13T11:20:34;27.10;63.90
10848;DHT22;5477;48.806;9.154;2023-07-13T11:23:20;27.40;63.50
10848;DHT22;5477;48.806;9.154;2023-07-13T11:25:54;27.80;62.60
10848;DHT22;5477;48.806;9.154;2023-07-13T11:28:25;27.90;62.10
10848;DHT22;5477;48.806;9.154;2023-07-13T11:31:13;27.60;61.30
10848;DHT22;5477;48.806;9.154;2023-07-13T11:34:01;27.40;61.70
10848;DHT22;5477;48.806;9.154;2023-07-13T11:36:32;27.70;61.30
10848;DHT22;5477;48.806;9.154;2023-07-13T11:39:10;27.80;61.20
10848;DHT22;5477;48.806;9.154;2023-07-13T11:41:44;27.50;60.80
10848;DHT22;5477;48.806;9.154;2023-07-13T11:44:17;27.30;60.90
10848;DHT22;5477;48.806;9.154;2023-07-13T11:46:47;27.50;60.10
10848;DHT22;5477;48.806;9.154;2023-07-13T11:49:20;28.00;59.50
10848;DHT22;5477;48.806;9.154;2023-07-13T11:51:51;28.30;58.60
10848;DHT22;5477;48.806;9.154;2023-07-13T11:54:26;28.60;58.20
10848;DHT22;5477;48.806;9.154;2023-07-13T11:56:56;28.60;57.90
10848;DHT22;5477;48.806;9.154;2023-07-13T11:59:29;28.90;57.40
10848;DHT22;5477;48.806;9.154;2023-07-13T12:01:59;29.30;57.20
10848;DHT22;5477;48.806;9.154;2023-07-13T12:04:29;29.40;57.00
10848;DHT22;5477;48.806;9.154;2023-07-13T12:07:04;29.80;56.10
10848;DHT22;5477;48.806;9.154;2023-07-13T12:09:34;29.70;56.90
10848;DHT22;5477;48.806;9.154;2023-07-13T12:12:08;30.10;54.50
10848;DHT22;5477;48.806;9.154;2023-07-13T12:14:39;30.40;54.50
10848;DHT22;5477;48.806;9.154;2023-07-13T12:17:19;30.70;54.30
10848;DHT22;5477;48.806;9.154;2023-07-13T12:19:48;30.20;53.40
10848;DHT22;5477;48.806;9.154;2023-07-13T12:22:17;29.30;54.10
10848;DHT22;5477;48.806;9.154;2023-07-13T12:24:47;29.20;54.10
10848;DHT22;5477;48.806;9.154;2023-07-13T12:27:20;28.90;53.80
10848;DHT22;5477;48.806;9.154;2023-07-13T12:29:52;28.60;54.50
10848;DHT22;5477;48.806;9.154;2023-07-13T12:32:21;29.10;54.30
10848;DHT22;5477;48.806;9.154;2023-07-13T12:34:54;30.10;52.90
10848;DHT22;5477;48.806;9.154;2023-07-13T12:37:23;30.60;51.50
10848;DHT22;5477;48.806;9.154;2023-07-13T12:39:52;31.00;50.90
10848;DHT22;5477;48.806;9.154;2023-07-13T12:42:22;31.00;50.40
10848;DHT22;5477;48.806;9.154;2023-07-13T12:44:56;30.90;50.20
10848;DHT22;5477;48.806;9.154;2023-07-13T12:47:25;30.50;51.10
10848;DHT22;5477;48.806;9.154;2023-07-13T12:49:55;29.80;51.70
10848;DHT22;5477;48.806;9.154;2023-07-13T12:52:28;29.70;51.80
10848;DHT22;5477;48.806;9.154;2023-07-13T12:54:59;29.70;51.80
10848;DHT22;5477;48.806;9.154;2023-07-13T12:57:38;30.30;52.00
10848;DHT22;5477;48.806;9.154;2023-07-13T13:00:21;31.00;50.00
10848;DHT22;5477;48.806;9.154;2023-07-13T13:02:52;31.10;49.80
10848;DHT22;5477;48.806;9.154;2023-07-13T13:05:34;30.40;50.50
10848;DHT22;5477;48.806;9.154;2023-07-13T13:08:04;30.60;49.70
10848;DHT22;5477;48.806;9.154;2023-07-13T13:10:32;30.90;49.30
10848;DHT22;5477;48.806;9.154;2023-07-13T13:13:02;30.80;49.10
10848;DHT22;5477;48.806;9.154;2023-07-13T13:15:32;30.80;48.50
10848;DHT22;5477;48.806;9.154;2023-07-13T13:18:00;31.00;48.70
10848;DHT22;5477;48.806;9.154;2023-07-13T13:20:28;31.30;48.40
10848;DHT22;5477;48.806;9.154;2023-07-13T13:22:56;31.40;47.90
10848;DHT22;5477;48.806;9.154;2023-07-13T13:25:25;31.10;48.40
10848;DHT22;5477;48.806;9.154;2023-07-13T13:27:53;30.90;48.10
10848;DHT22;5477;48.806;9.154;2023-07-13T13:30:21;31.00;48.40
10848;DHT22;5477;48.806;9.154;2023-07-13T13:32:50;31.10;47.50
10848;DHT22;5477;48.806;9.154;2023-07-13T13:35:20;31.60;47.40
10848;DHT22;5477;48.806;9.154;2023-07-13T13:37:48;31.90;47.10
10848;DHT22;5477;48.806;9.154;2023-07-13T13:40:20;31.30;47.30
10848;DHT22;5477;48.806;9.154;2023-07-13T13:42:49;30.60;48.30
10848;DHT22;5477;48.806;9.154;2023-07-13T13:45:18;29.90;48.10
10848;DHT22;5477;48.806;9.154;2023-07-13T13:47:48;29.60;49.10
10848;DHT22;5477;48.806;9.154;2023-07-13T13:50:19;29.80;48.90
10848;DHT22;5477;48.806;9.154;2023-07-13T13:52:48;29.80;48.70
10848;DHT22;5477;48.806;9.154;2023-07-13T13:55:19;30.10;48.90
10848;DHT22;5477;48.806;9.154;2023-07-13T13:57:48;31.00;48.30
10848;DHT22;5477;48.806;9.154;2023-07-13T14:00:17;31.60;46.90
10848;DHT22;5477;48.806;9.154;2023-07-13T14:02:46;32.30;46.50
10848;DHT22;5477;48.806;9.154;2023-07-13T14:05:22;33.60;45.20
10848;DHT22;5477;48.806;9.154;2023-07-13T14:07:50;34.80;43.40
10848;DHT22;5477;48.806;9.154;2023-07-13T14:10:20;34.50;43.30
10848;DHT22;5477;48.806;9.154;2023-07-13T14:12:51;34.40;42.80
10848;DHT22;5477;48.806;9.154;2023-07-13T14:15:23;33.70;43.30
10848;DHT22;5477;48.806;9.154;2023-07-13T14:17:52;33.10;44.30
10848;DHT22;5477;48.806;9.154;2023-07-13T14:20:24;32.20;45.10
10848;DHT22;5477;48.806;9.154;2023-07-13T14:22:52;31.10;45.70
10848;DHT22;5477;48.806;9.154;2023-07-13T14:25:22;30.30;46.60
10848;DHT22;5477;48.806;9.154;2023-07-13T14:27:55;30.50;46.90
10848;DHT22;5477;48.806;9.154;2023-07-13T14:30:26;31.20;45.10
10848;DHT22;5477;48.806;9.154;2023-07-13T14:32:54;31.60;44.00
10848;DHT22;5477;48.806;9.154;2023-07-13T14:35:23;32.20;43.80
10848;DHT22;5477;48.806;9.154;2023-07-13T14:37:51;33.00;43.40
10848;DHT22;5477;48.806;9.154;2023-07-13T14:40:24;33.50;42.90
10848;DHT22;5477;48.806;9.154;2023-07-13T14:42:53;34.10;42.80
10848;DHT22;5477;48.806;9.154;2023-07-13T14:45:21;34.40;42.00
10848;DHT22;5477;48.806;9.154;2023-07-13T14:47:50;34.30;42.20
10848;DHT22;5477;48.806;9.154;2023-07-13T14:50:21;34.10;42.10
10848;DHT22;5477;48.806;9.154;2023-07-13T14:52:50;32.80;43.30
10848;DHT22;5477;48.806;9.154;2023-07-13T14:55:19;32.50;44.00
10848;DHT22;5477;48.806;9.154;2023-07-13T14:57:48;32.00;44.20
10848;DHT22;5477;48.806;9.154;2023-07-13T15:00:18;31.90;44.40
10848;DHT22;5477;48.806;9.154;2023-07-13T15:02:50;31.80;44.80
10848;DHT22;5477;48.806;9.154;2023-07-13T15:05:22;31.90;44.90
10848;DHT22;5477;48.806;9.154;2023-07-13T15:07:53;32.60;44.90
10848;DHT22;5477;48.806;9.154;2023-07-13T15:10:24;33.00;43.80
10848;DHT22;5477;48.806;9.154;2023-07-13T15:12:57;33.70;43.40
10848;DHT22;5477;48.806;9.154;2023-07-13T15:15:27;33.90;42.50
10848;DHT22;5477;48.806;9.154;2023-07-13T15:17:55;34.30;42.60
10848;DHT22;5477;48.806;9.154;2023-07-13T15:20:26;34.50;42.00
10848;DHT22;5477;48.806;9.154;2023-07-13T15:22:59;34.50;41.80
10848;DHT22;5477;48.806;9.154;2023-07-13T15:25:30;34.30;41.70
10848;DHT22;5477;48.806;9.154;2023-07-13T15:28:00;33.80;41.40
10848;DHT22;5477;48.806;9.154;2023-07-13T15:30:30;33.10;42.20
10848;DHT22;5477;48.806;9.154;2023-07-13T15:33:08;33.60;42.30
10848;DHT22;5477;48.806;9.154;2023-07-13T15:35:37;34.30;41.60
10848;DHT22;5477;48.806;9.154;2023-07-13T15:38:13;34.50;41.00
10848;DHT22;5477;48.806;9.154;2023-07-13T15:40:42;33.80;40.60
10848;DHT22;5477;48.806;9.154;2023-07-13T15:43:11;33.00;41.80
10848;DHT22;5477;48.806;9.154;2023-07-13T15:45:40;32.80;42.30
10848;DHT22;5477;48.806;9.154;2023-07-13T15:48:13;33.00;42.10
10848;DHT22;5477;48.806;9.154;2023-07-13T15:50:44;33.10;41.90
10848;DHT22;5477;48.806;9.154;2023-07-13T15:53:15;33.40;42.10
10848;DHT22;5477;48.806;9.154;2023-07-13T15:55:46;34.00;41.70
10848;DHT22;5477;48.806;9.154;2023-07-13T15:58:14;34.30;40.70
10848;DHT22;5477;48.806;9.154;2023-07-13T16:00:42;34.70;40.20
10848;DHT22;5477;48.806;9.154;2023-07-13T16:03:11;34.40;40.40
10848;DHT22;5477;48.806;9.154;2023-07-13T16:05:41;34.10;40.70
10848;DHT22;5477;48.806;9.154;2023-07-13T16:08:20;34.10;40.60